createdAt,value
2023-02-03T00:00:40.156Z,0.52
2023-02-03T00:03:08.522Z,0.53
2023-02-03T00:05:37.600Z,0.52
2023-02-03T00:08:06.153Z,0.52
2023-02-03T00:10:35.149Z,0.52
2023-02-03T00:13:03.444Z,0.54
2023-02-03T00:15:31.604Z,0.54
2023-02-03T00:17:59.973Z,0.53
2023-02-03T00:20:28.808Z,0.54
2023-02-03T00:23:06.768Z,0.53
2023-02-03T00:25:35.485Z,0.52
2023-02-03T00:28:04.309Z,0.51
2023-02-03T00:30:36.234Z,0.50
2023-02-03T00:33:04.997Z,0.50
2023-02-03T00:35:33.393Z,0.50
2023-02-03T00:38:01.993Z,0.51
2023-02-03T00:40:33.416Z,0.51
2023-02-03T00:43:02.545Z,0.51
2023-02-03T00:45:30.958Z,0.51
2023-02-03T00:47:59.485Z,0.52
2023-02-03T00:50:28.270Z,0.52
2023-02-03T00:52:57.715Z,0.51
2023-02-03T00:55:27.489Z,0.52
2023-02-03T00:57:55.826Z,0.52
2023-02-03T01:00:24.523Z,0.53
2023-02-03T05:00:11.105Z,0.04
2023-02-03T05:02:40.438Z,0.15
2023-02-03T05:05:08.629Z,0.12
2023-02-03T05:07:37.823Z,0.12
2023-02-03T05:10:06.844Z,0.10
2023-02-03T05:12:35.088Z,0.08
2023-02-03T05:15:03.670Z,0.06
2023-02-03T05:17:39.056Z,0.06
2023-02-03T05:20:08.813Z,0.05
2023-02-03T05:22:36.915Z,0.04
2023-02-03T05:25:06.066Z,0.02
2023-02-03T05:27:34.906Z,0.01
2023-02-03T05:30:03.683Z,-0.03
2023-02-03T05:32:48.653Z,-0.04
2023-02-03T05:35:17.356Z,-0.07
2023-02-03T05:37:46.038Z,-0.07
2023-02-03T05:40:33.248Z,-0.08
2023-02-03T05:43:02.652Z,-0.08
2023-02-03T05:45:31.797Z,-0.10
2023-02-03T05:48:00.031Z,-0.11
2023-02-03T05:50:33.541Z,-0.11
2023-02-03T05:53:09.729Z,-0.12
2023-02-03T05:55:38.204Z,-0.13
2023-02-03T05:58:06.668Z,-0.12
2023-02-03T06:00:39.247Z,-0.10
2023-02-03T06:03:31.018Z,-0.08
2023-02-03T06:06:01.012Z,-0.06
2023-02-03T06:08:29.372Z,-0.05
2023-02-03T06:10:59.722Z,-0.04
2023-02-03T06:13:31.661Z,-0.02
2023-02-03T06:15:59.958Z,0.02
2023-02-03T06:18:28.230Z,0.05
2023-02-03T06:20:56.358Z,0.07
2023-02-03T06:23:24.767Z,0.09
2023-02-03T06:25:53.268Z,0.12
2023-02-03T06:28:21.698Z,0.12
2023-02-03T06:30:55.725Z,0.11
2023-02-03T06:33:24.227Z,0.14
2023-02-03T06:35:54.143Z,0.16
2023-02-03T06:38:22.625Z,0.14
2023-02-03T06:40:51.008Z,0.13
2023-02-03T06:43:19.182Z,0.13
2023-02-03T06:45:47.765Z,0.14
2023-02-03T06:48:15.873Z,0.15
2023-02-03T06:50:47.537Z,0.17
2023-02-03T06:53:16.802Z,0.17
2023-02-03T06:55:45.194Z,0.20
2023-02-03T06:58:13.888Z,0.23
2023-02-03T07:00:41.998Z,0.27
2023-02-03T07:03:10.334Z,0.29
2023-02-03T07:06:04.025Z,0.34
2023-02-03T07:08:32.277Z,0.41
2023-02-03T07:11:00.626Z,0.47
2023-02-03T07:13:29.136Z,0.51
2023-02-03T07:15:57.269Z,0.54
2023-02-03T07:21:15.070Z,0.51
2023-02-03T07:23:43.554Z,0.47
2023-02-03T07:26:11.839Z,0.47
2023-02-03T07:28:40.413Z,0.31
2023-02-03T07:31:10.730Z,0.20
2023-02-03T07:33:39.736Z,0.12
2023-02-03T07:36:10.524Z,0.10
2023-02-03T07:38:39.876Z,0.10
2023-02-03T07:41:08.270Z,0.10
2023-02-03T07:43:37.052Z,0.11
2023-02-03T07:46:05.399Z,0.09
2023-02-03T07:48:36.343Z,0.08
2023-02-03T07:51:05.985Z,0.06
2023-02-03T07:53:34.482Z,0.06
2023-02-03T07:56:04.030Z,0.05
2023-02-03T07:58:32.437Z,0.05
2023-02-03T08:01:00.830Z,0.04
2023-02-03T08:03:29.213Z,0.04
2023-02-03T08:06:00.635Z,-0.02
2023-02-03T08:08:28.942Z,-0.06
2023-02-03T08:10:57.247Z,-0.08
2023-02-03T08:13:25.600Z,-0.13
2023-02-03T08:15:55.060Z,-0.18
2023-02-03T08:18:23.788Z,-0.20
2023-02-03T08:20:52.243Z,-0.19
2023-02-03T08:23:20.613Z,-0.16
2023-02-03T08:25:52.811Z,-0.15
2023-02-03T08:28:21.174Z,-0.15
2023-02-03T08:30:49.935Z,-0.15
2023-02-03T08:33:41.629Z,-0.16
2023-02-03T08:36:11.367Z,-0.18
2023-02-03T08:38:40.472Z,-0.22
2023-02-03T08:41:12.529Z,-0.26
2023-02-03T08:43:44.509Z,-0.27
2023-02-03T08:46:13.912Z,-0.28
2023-02-03T08:48:43.269Z,-0.27
2023-02-03T08:51:13.078Z,-0.26
2023-02-03T08:53:41.262Z,-0.30
2023-02-03T08:56:10.553Z,-0.36
2023-02-03T08:58:39.347Z,-0.38
2023-02-03T09:01:12.345Z,-0.39
2023-02-03T09:03:40.709Z,-0.42
2023-02-03T09:06:11.922Z,-0.40
2023-02-03T09:08:40.544Z,-0.41
2023-02-03T09:11:10.928Z,-0.40
2023-02-03T09:13:39.938Z,-0.38
2023-02-03T09:16:08.570Z,-0.33
2023-02-03T09:18:36.934Z,-0.32
2023-02-03T09:21:07.027Z,-0.31
2023-02-03T09:23:35.959Z,-0.30
2023-02-03T09:26:05.615Z,-0.27
2023-02-03T09:28:34.560Z,-0.23
2023-02-03T09:31:07.833Z,-0.20
2023-02-03T09:33:39.059Z,-0.22
2023-02-03T09:36:08.257Z,-0.26
2023-02-03T09:38:36.624Z,-0.28
2023-02-03T09:41:11.689Z,-0.25
2023-02-03T09:43:46.962Z,-0.20
2023-02-03T09:46:18.252Z,-0.17
2023-02-03T09:48:53.760Z,-0.15
2023-02-03T09:51:30.294Z,-0.13
2023-02-03T09:54:12.339Z,-0.07
2023-02-03T09:56:40.728Z,0.00
2023-02-03T09:59:09.094Z,0.02
2023-02-03T10:01:42.780Z,0.04
2023-02-03T10:04:19.016Z,0.04
2023-02-03T10:06:47.170Z,0.05
2023-02-03T10:09:24.707Z,0.11
2023-02-03T10:12:07.965Z,0.15
2023-02-03T13:26:43.245Z,0.41
2023-02-03T13:29:17.545Z,0.41
2023-02-03T13:31:58.993Z,0.32
2023-02-03T13:34:38.617Z,0.24
2023-02-03T13:37:19.598Z,0.17
2023-02-03T13:39:50.645Z,0.12
2023-02-03T13:42:23.931Z,0.05
2023-02-03T13:44:58.252Z,-0.01
2023-02-03T13:47:29.510Z,-0.06
2023-02-03T13:50:06.699Z,-0.10
2023-02-03T13:52:57.171Z,-0.14
2023-02-03T13:55:30.589Z,-0.17
2023-02-03T13:58:01.803Z,-0.21
2023-02-03T14:00:45.678Z,-0.22
2023-02-03T14:03:20.555Z,-0.26
2023-02-03T14:05:54.221Z,-0.31
2023-02-03T14:08:25.365Z,-0.33
2023-02-03T14:11:35.017Z,-0.36
2023-02-03T14:14:12.701Z,-0.40
2023-02-03T14:16:42.329Z,-0.45
2023-02-03T14:19:12.358Z,-0.47
2023-02-03T14:21:45.834Z,-0.48
2023-02-03T14:24:14.333Z,-0.50
2023-02-03T14:26:44.464Z,-0.53
2023-02-03T14:29:25.015Z,-0.54
2023-02-03T14:31:55.940Z,-0.53
2023-02-03T14:34:35.212Z,-0.53
2023-02-03T14:37:23.630Z,-0.54
2023-02-03T14:40:16.403Z,-0.58
2023-02-03T14:42:45.744Z,-0.60
2023-02-03T14:45:32.087Z,-0.61
2023-02-03T14:48:26.577Z,-0.60
2023-02-03T14:51:26.101Z,-0.60
2023-02-03T14:54:12.665Z,-0.61
2023-02-03T14:57:39.451Z,-0.64
2023-02-03T15:00:19.515Z,-0.67
2023-02-03T15:03:19.968Z,-0.69
2023-02-03T15:06:01.282Z,-0.72
2023-02-03T15:08:53.195Z,-0.76
2023-02-03T15:11:31.983Z,-0.83
2023-02-03T15:14:18.949Z,-0.86
2023-02-03T15:16:51.319Z,-0.92
2023-02-03T15:19:22.747Z,-0.96
2023-02-03T15:21:50.843Z,-0.98
2023-02-03T15:24:22.288Z,-0.99
2023-02-03T15:26:52.693Z,-1.00
2023-02-03T15:29:28.784Z,-1.00
2023-02-03T15:32:01.582Z,-1.01
2023-02-03T15:34:31.415Z,-1.01
2023-02-03T15:37:01.043Z,-1.02
2023-02-03T15:39:46.515Z,-1.03
2023-02-03T15:42:21.994Z,-1.04
2023-02-03T15:44:58.838Z,-1.06
2023-02-03T15:47:31.379Z,-1.07
2023-02-03T15:50:06.360Z,-1.09
2023-02-03T15:52:35.895Z,-1.10
2023-02-03T15:55:12.958Z,-1.10
2023-02-03T15:57:40.956Z,-1.11
2023-02-03T16:00:26.570Z,-1.12
2023-02-03T16:02:54.847Z,-1.13
2023-02-03T16:05:32.032Z,-1.14
2023-02-03T16:08:38.452Z,-1.14
2023-02-03T16:11:23.357Z,-1.17
2023-02-03T16:13:52.741Z,-1.19
2023-02-03T16:16:33.209Z,-1.21
2023-02-03T16:19:17.610Z,-1.21
2023-02-03T16:21:49.889Z,-1.22
2023-02-03T16:24:47.662Z,-1.23
2023-02-03T16:27:28.046Z,-1.23
2023-02-03T16:30:27.352Z,-1.24
2023-02-03T16:33:23.794Z,-1.23
2023-02-03T16:36:10.934Z,-1.23
2023-02-03T16:38:57.464Z,-1.23
2023-02-03T16:41:44.430Z,-1.23
2023-02-03T16:44:31.243Z,-1.24
2023-02-03T16:47:18.303Z,-1.25
2023-02-03T16:50:04.877Z,-1.28
2023-02-03T16:52:33.762Z,-1.27
2023-02-03T16:55:01.863Z,-1.28
2023-02-03T16:57:30.319Z,-1.30
2023-02-03T16:59:58.701Z,-1.33
2023-02-03T17:02:26.965Z,-1.32
2023-02-03T17:04:55.158Z,-1.34
2023-02-03T17:07:23.531Z,-1.35
2023-02-03T17:09:51.929Z,-1.35
2023-02-03T17:12:20.090Z,-1.36
2023-02-03T17:14:48.674Z,-1.37
2023-02-03T17:17:17.060Z,-1.38
2023-02-03T17:19:45.641Z,-1.39
2023-02-03T17:22:14.229Z,-1.41
2023-02-03T17:24:42.823Z,-1.42
2023-02-03T17:27:11.055Z,-1.41
2023-02-03T17:29:39.780Z,-1.39
2023-02-03T17:32:08.446Z,-1.39
2023-02-03T17:34:36.949Z,-1.38
2023-02-03T17:37:05.243Z,-1.40
2023-02-03T17:53:24.802Z,-1.42
2023-02-03T17:55:52.894Z,-1.44
2023-02-03T17:58:23.585Z,-1.45
2023-02-03T18:00:51.847Z,-1.46
2023-02-03T18:03:20.046Z,-1.46
2023-02-03T18:05:52.067Z,-1.46
2023-02-03T18:08:20.509Z,-1.48
2023-02-03T18:10:52.537Z,-1.49
2023-02-03T18:13:23.495Z,-1.48
2023-02-03T18:15:52.285Z,-1.48
2023-02-03T18:18:23.222Z,-1.47
2023-02-03T18:20:52.474Z,-1.50
2023-02-03T18:23:20.903Z,-1.50
2023-02-03T18:25:53.477Z,-1.50
2023-02-03T18:28:22.815Z,-1.51
2023-02-03T18:30:51.093Z,-1.51
2023-02-03T18:33:19.329Z,-1.51
2023-02-03T18:35:47.825Z,-1.53
2023-02-03T18:38:15.967Z,-1.54
2023-02-03T18:40:44.171Z,-1.55
2023-02-03T18:43:12.662Z,-1.55
2023-02-03T18:45:41.050Z,-1.55
2023-02-03T18:48:09.529Z,-1.57
2023-02-03T18:50:43.236Z,-1.57
2023-02-03T18:53:11.630Z,-1.59
2023-02-03T18:55:43.421Z,-1.60
2023-02-03T18:58:12.576Z,-1.61
2023-02-03T19:00:41.786Z,-1.62
2023-02-03T19:03:10.152Z,-1.63
2023-02-03T19:05:41.412Z,-1.63
2023-02-03T19:08:10.314Z,-1.64
2023-02-03T19:10:38.441Z,-1.65
2023-02-03T19:13:06.855Z,-1.66
2023-02-03T19:15:35.220Z,-1.66
2023-02-03T19:18:03.650Z,-1.68
2023-02-03T19:20:31.944Z,-1.69
2023-02-03T19:23:02.533Z,-1.69
2023-02-03T19:25:31.268Z,-1.70
2023-02-03T19:27:59.576Z,-1.71
2023-02-03T19:30:28.405Z,-1.71
2023-02-03T19:32:57.599Z,-1.71
2023-02-03T19:35:26.077Z,-1.71
2023-02-03T19:37:54.564Z,-1.72
2023-02-03T19:40:22.622Z,-1.73
2023-02-03T19:42:51.011Z,-1.74
2023-02-03T19:45:19.330Z,-1.72
2023-02-03T19:47:49.125Z,-1.73
2023-02-03T19:50:17.279Z,-1.74
2023-02-03T19:52:52.255Z,-1.75
2023-02-03T19:55:30.667Z,-1.76
2023-02-03T19:58:00.344Z,-1.76
2023-02-03T20:00:28.755Z,-1.77
2023-02-03T20:02:57.516Z,-1.78
2023-02-03T20:05:26.030Z,-1.81
2023-02-03T20:07:54.417Z,-1.82
2023-02-03T20:10:22.499Z,-1.81
2023-02-03T20:12:51.930Z,-1.83
2023-02-03T20:15:20.380Z,-1.84
2023-02-03T20:17:51.176Z,-1.84
2023-02-03T20:20:20.825Z,-1.84
2023-02-03T20:22:49.636Z,-1.85
2023-02-03T20:25:19.401Z,-1.86
2023-02-03T20:27:47.634Z,-1.86
2023-02-03T20:30:16.047Z,-1.85
2023-02-03T20:32:44.625Z,-1.86
2023-02-03T20:35:12.776Z,-1.86
2023-02-03T20:37:41.043Z,-1.88
2023-02-03T20:40:19.106Z,-1.89
2023-02-03T20:42:47.575Z,-1.91
2023-02-03T20:45:16.088Z,-1.92
2023-02-03T20:47:44.913Z,-1.92
2023-02-03T20:50:17.178Z,-1.91
2023-02-03T20:52:46.442Z,-1.92
2023-02-03T20:55:19.662Z,-1.92
2023-02-03T20:57:50.916Z,-1.91
2023-02-03T21:00:21.386Z,-1.93
2023-02-03T21:03:08.522Z,-1.93
2023-02-03T21:05:42.275Z,-1.94
2023-02-03T21:08:11.327Z,-1.95
2023-02-03T21:10:41.049Z,-1.97
2023-02-03T21:13:26.881Z,-1.99
2023-02-03T21:15:57.007Z,-1.99
2023-02-03T21:18:25.024Z,-1.98
2023-02-03T21:20:53.711Z,-1.98
2023-02-03T21:23:24.455Z,-1.99
2023-02-03T21:25:52.827Z,-2.01
2023-02-03T21:28:35.212Z,-2.02
2023-02-03T21:31:22.542Z,-2.03
2023-02-03T21:33:51.568Z,-2.04
2023-02-03T21:36:21.340Z,-2.05
2023-02-03T21:38:50.362Z,-2.04
2023-02-03T21:41:20.394Z,-2.03
2023-02-03T21:43:50.393Z,-2.03
2023-02-03T21:46:28.303Z,-2.04
2023-02-03T21:49:03.844Z,-2.05
2023-02-03T21:51:36.650Z,-2.07
2023-02-03T21:54:27.249Z,-2.06
2023-02-03T21:56:56.026Z,-2.05
2023-02-03T21:59:28.564Z,-2.06
2023-02-03T22:01:58.654Z,-2.07
2023-02-03T22:04:28.408Z,-2.07
2023-02-03T22:06:56.730Z,-2.07
2023-02-03T22:09:29.836Z,-2.07
2023-02-03T22:12:20.778Z,-2.07
2023-02-03T22:14:51.353Z,-2.07
2023-02-03T22:17:19.630Z,-2.06
2023-02-03T22:19:49.951Z,-2.04
2023-02-03T22:22:18.132Z,-2.03
2023-02-03T22:24:46.250Z,-2.04
2023-02-03T22:27:14.449Z,-2.05
2023-02-03T22:29:42.678Z,-2.05
2023-02-03T22:32:10.935Z,-2.06
2023-02-03T22:34:39.113Z,-2.05
2023-02-03T22:37:07.304Z,-2.05
2023-02-03T22:39:35.520Z,-2.05
2023-02-03T22:42:04.062Z,-2.06
2023-02-03T22:44:32.227Z,-2.09
2023-02-03T22:47:00.353Z,-2.11
2023-02-03T22:49:32.873Z,-2.11
2023-02-03T22:52:01.661Z,-2.11
2023-02-03T22:54:33.849Z,-2.12
2023-02-03T22:57:02.943Z,-2.17
2023-02-03T22:59:31.107Z,-2.21
2023-02-03T23:01:59.802Z,-2.26
2023-02-03T23:04:28.186Z,-2.32
2023-02-03T23:06:56.357Z,-2.39
2023-02-03T23:09:24.472Z,-2.46
2023-02-03T23:11:53.838Z,-2.55
2023-02-03T23:14:26.683Z,-2.63
2023-02-03T23:16:55.246Z,-2.70
2023-02-03T23:19:24.859Z,-2.77
2023-02-03T23:21:52.958Z,-2.84
2023-02-03T23:24:21.423Z,-2.90
2023-02-03T23:26:49.625Z,-2.96
2023-02-03T23:29:17.921Z,-3.01
2023-02-03T23:31:46.236Z,-3.05
2023-02-03T23:34:32.905Z,-3.09
2023-02-03T23:37:01.614Z,-3.14
2023-02-03T23:39:30.138Z,-3.17
2023-02-03T23:41:58.411Z,-3.22
2023-02-03T23:44:27.050Z,-3.26
2023-02-03T23:46:55.592Z,-3.29
2023-02-03T23:49:23.933Z,-3.34
2023-02-03T23:51:52.053Z,-3.40
2023-02-03T23:54:20.364Z,-3.44
2023-02-03T23:56:49.057Z,-3.49
2023-02-03T23:59:17.222Z,-3.53
